createdAt,value
2017-08-09T00:00:27.791Z,49.5
2017-08-09T00:01:29.921Z,49.2
2017-08-09T00:02:32.054Z,49.3
2017-08-09T00:03:34.183Z,49.2
2017-08-09T00:04:36.313Z,49.2
2017-08-09T00:05:38.456Z,49.2
2017-08-09T00:06:40.589Z,49.2
2017-08-09T00:07:42.034Z,49.4
2017-08-09T00:08:43.831Z,49.2
2017-08-09T00:09:45.962Z,49.3
2017-08-09T00:10:48.092Z,49.2
2017-08-09T00:11:49.870Z,49.2
2017-08-09T00:12:51.665Z,49.5
2017-08-09T00:13:53.795Z,49
2017-08-09T00:15:02.194Z,49.4
2017-08-09T00:16:03.995Z,49.6
2017-08-09T00:17:06.133Z,49
2017-08-09T00:18:08.262Z,48.9
2017-08-09T00:19:10.058Z,49.5
2017-08-09T00:20:12.187Z,49.3
2017-08-09T00:21:13.984Z,49.3
2017-08-09T00:22:15.097Z,49.3
2017-08-09T00:23:16.898Z,49.3
2017-08-09T00:24:18.710Z,48.9
2017-08-09T00:25:20.837Z,49.5
2017-08-09T00:26:22.967Z,49
2017-08-09T00:27:24.765Z,49.5
2017-08-09T00:28:26.895Z,48.9
2017-08-09T00:29:28.699Z,49.5
2017-08-09T00:30:30.478Z,49.2
2017-08-09T00:31:32.274Z,48.9
2017-08-09T00:32:33.719Z,49.4
2017-08-09T00:33:35.518Z,49.4
2017-08-09T00:34:36.986Z,49
2017-08-09T00:35:38.093Z,49.3
2017-08-09T00:36:39.227Z,48.9
2017-08-09T00:37:41.356Z,49
2017-08-09T00:38:42.804Z,48.9
2017-08-09T00:39:44.934Z,48.9
2017-08-09T00:40:47.066Z,49
2017-08-09T00:41:48.867Z,48.9
2017-08-09T00:42:51.006Z,48.9
2017-08-09T00:43:52.438Z,49
2017-08-09T00:44:54.577Z,49.2
2017-08-09T00:45:56.698Z,49
2017-08-09T00:46:58.140Z,49.3
2017-08-09T00:47:59.941Z,49
2017-08-09T00:49:02.074Z,49
2017-08-09T00:50:04.200Z,48.9
2017-08-09T00:51:06.332Z,49
2017-08-09T00:52:08.462Z,49
2017-08-09T00:53:10.239Z,49
2017-08-09T00:54:12.369Z,49
2017-08-09T00:55:14.170Z,49.2
2017-08-09T00:56:16.312Z,49.4
2017-08-09T00:57:18.111Z,49
2017-08-09T00:58:20.240Z,49
2017-08-09T00:59:22.016Z,49.4
2017-08-09T01:00:24.150Z,49.3
2017-08-09T01:01:26.279Z,49.1
2017-08-09T01:02:28.409Z,49.1
2017-08-09T01:03:30.223Z,49
2017-08-09T01:04:31.665Z,49
2017-08-09T01:05:33.794Z,49.1
2017-08-09T01:06:35.593Z,49
2017-08-09T01:07:37.038Z,49
2017-08-09T01:08:39.171Z,49.6
2017-08-09T01:09:40.948Z,49.4
2017-08-09T01:10:43.091Z,49.5
2017-08-09T01:11:44.891Z,49
2017-08-09T01:12:47.022Z,49
2017-08-09T01:13:48.466Z,49
2017-08-09T01:14:50.596Z,49.3
2017-08-09T01:15:52.393Z,49.2
2017-08-09T01:16:54.525Z,49.7
2017-08-09T01:17:56.652Z,49.1
2017-08-09T01:18:58.780Z,49
2017-08-09T01:20:00.224Z,49.5
2017-08-09T01:21:01.690Z,49.1
2017-08-09T01:22:03.818Z,49.1
2017-08-09T01:23:05.617Z,49.6
2017-08-09T01:24:07.078Z,49.5
2017-08-09T01:25:08.875Z,49
2017-08-09T01:26:10.319Z,49.4
2017-08-09T01:27:12.093Z,49
2017-08-09T01:28:13.539Z,49.4
2017-08-09T01:29:14.659Z,49.5
2017-08-09T01:30:15.759Z,49
2017-08-09T01:31:17.886Z,49
2017-08-09T01:32:20.016Z,49
2017-08-09T01:33:21.790Z,49.3
2017-08-09T01:34:23.920Z,49
2017-08-09T01:35:25.365Z,49
2017-08-09T01:36:27.164Z,49.2
2017-08-09T01:37:28.687Z,49
2017-08-09T01:38:30.155Z,49.1
2017-08-09T01:39:31.618Z,49.3
2017-08-09T01:40:33.415Z,49
2017-08-09T01:41:35.194Z,49.2
2017-08-09T01:42:37.319Z,49
2017-08-09T01:43:38.098Z,49
2017-08-09T01:44:39.873Z,49
2017-08-09T01:45:41.671Z,49.1
2017-08-09T01:46:43.800Z,49.1
2017-08-09T01:47:45.596Z,49
2017-08-09T01:48:47.801Z,49.1
2017-08-09T01:49:49.931Z,49
2017-08-09T01:50:51.396Z,49
2017-08-09T01:51:53.523Z,49.2
2017-08-09T01:52:55.657Z,49.1
2017-08-09T01:53:57.789Z,49.2
2017-08-09T01:54:59.568Z,49.1
2017-08-09T01:56:01.698Z,49.3
2017-08-09T01:57:03.165Z,48.9
2017-08-09T01:58:04.647Z,48.9
2017-08-09T01:59:06.439Z,49.3
2017-08-09T02:00:08.236Z,49.3
2017-08-09T02:01:10.012Z,49.1
2017-08-09T02:02:11.479Z,49
2017-08-09T02:03:13.610Z,49
2017-08-09T02:04:15.407Z,49.1
2017-08-09T02:05:17.538Z,49.1
2017-08-09T02:06:19.669Z,49.1
2017-08-09T02:07:21.802Z,49.3
2017-08-09T02:08:23.578Z,49.2
2017-08-09T02:09:25.706Z,49
2017-08-09T02:10:27.153Z,49.2
2017-08-09T02:11:28.949Z,49.1
2017-08-09T02:12:31.077Z,49.1
2017-08-09T02:13:33.208Z,49.1
2017-08-09T02:14:35.336Z,49.1
2017-08-09T02:15:37.466Z,49.2
2017-08-09T02:16:39.598Z,49
2017-08-09T02:17:41.397Z,49.2
2017-08-09T02:18:43.529Z,49.2
2017-08-09T02:19:45.323Z,49.2
2017-08-09T02:20:47.454Z,48.9
2017-08-09T02:21:48.565Z,48.9
2017-08-09T02:22:50.344Z,49
2017-08-09T02:23:52.147Z,49
2017-08-09T02:24:54.281Z,49
2017-08-09T02:25:56.404Z,49.1
2017-08-09T02:26:58.553Z,49
2017-08-09T02:28:00.341Z,49
2017-08-09T02:29:01.802Z,49
2017-08-09T02:30:03.267Z,49.1
2017-08-09T02:31:04.401Z,49
2017-08-09T02:32:06.528Z,49
2017-08-09T02:33:08.662Z,49.2
2017-08-09T02:34:10.806Z,49
2017-08-09T02:35:12.937Z,49
2017-08-09T02:36:15.124Z,49
2017-08-09T02:37:17.255Z,48.9
2017-08-09T02:38:19.386Z,49
2017-08-09T02:39:21.522Z,49
2017-08-09T02:40:23.649Z,49.1
2017-08-09T02:41:25.815Z,49
2017-08-09T02:42:27.991Z,49.1
2017-08-09T02:43:29.436Z,49.1
2017-08-09T02:44:31.214Z,49
2017-08-09T02:45:33.344Z,49.1
2017-08-09T02:46:35.141Z,48.9
2017-08-09T02:47:37.275Z,49.1
2017-08-09T02:48:39.050Z,49
2017-08-09T02:49:41.178Z,49.1
2017-08-09T02:50:42.979Z,49
2017-08-09T02:51:44.423Z,49.1
2017-08-09T02:52:46.554Z,49.1
2017-08-09T02:53:48.018Z,49.1
2017-08-09T02:54:49.480Z,49.1
2017-08-09T02:55:50.924Z,49.1
2017-08-09T02:56:53.055Z,49.1
2017-08-09T02:57:54.853Z,48.8
2017-08-09T02:58:56.983Z,48.9
2017-08-09T02:59:59.117Z,49
2017-08-09T03:01:00.923Z,48.9
2017-08-09T03:02:02.383Z,49.1
2017-08-09T03:03:04.512Z,49.1
2017-08-09T03:04:06.639Z,48.9
2017-08-09T03:05:08.777Z,49.1
2017-08-09T03:06:09.897Z,49
2017-08-09T03:07:11.692Z,48.9
2017-08-09T03:08:13.469Z,48.8
2017-08-09T03:09:15.600Z,48.9
2017-08-09T03:10:17.398Z,48.7
2017-08-09T03:11:19.195Z,48.9
2017-08-09T03:12:20.995Z,48.8
2017-08-09T03:13:22.828Z,49
2017-08-09T03:14:24.322Z,48.9
2017-08-09T03:15:26.455Z,48.7
2017-08-09T03:16:28.584Z,49
2017-08-09T03:17:30.051Z,48.6
2017-08-09T03:18:31.850Z,48.6
2017-08-09T03:19:33.979Z,48.8
2017-08-09T03:20:35.776Z,48.7
2017-08-09T03:21:37.224Z,48.7
2017-08-09T03:22:38.997Z,48.6
2017-08-09T03:23:41.125Z,48.8
2017-08-09T03:24:42.921Z,48.7
2017-08-09T03:25:44.718Z,48.9
2017-08-09T03:26:46.847Z,49
2017-08-09T03:27:48.979Z,48.8
2017-08-09T03:28:50.753Z,48.8
2017-08-09T03:29:52.224Z,49
2017-08-09T03:30:54.022Z,48.8
2017-08-09T03:31:55.498Z,48.9
2017-08-09T03:32:57.632Z,49
2017-08-09T03:33:59.094Z,49
2017-08-09T03:35:00.894Z,48.7
2017-08-09T03:36:03.022Z,48.7
2017-08-09T03:37:04.832Z,48.8
2017-08-09T03:38:06.962Z,48.7
2017-08-09T03:39:08.962Z,48.9
2017-08-09T03:40:11.093Z,48.6
2017-08-09T03:41:13.222Z,48.7
2017-08-09T03:42:15.356Z,48.8
2017-08-09T03:43:17.158Z,48.7
2017-08-09T03:44:19.285Z,49
2017-08-09T03:45:21.084Z,48.7
2017-08-09T03:46:22.884Z,48.9
2017-08-09T03:47:24.679Z,49
2017-08-09T03:48:25.800Z,48.9
2017-08-09T03:49:27.267Z,48.7
2017-08-09T03:50:29.400Z,48.6
2017-08-09T03:51:31.188Z,49
2017-08-09T03:52:32.990Z,48.7
2017-08-09T03:53:35.122Z,48.7
2017-08-09T03:54:36.587Z,48.7
2017-08-09T03:55:38.386Z,48.8
2017-08-09T03:56:39.523Z,49
2017-08-09T03:57:41.324Z,48.8
2017-08-09T03:58:43.120Z,48.7
2017-08-09T03:59:44.582Z,48.6
2017-08-09T04:00:46.377Z,48.7
2017-08-09T04:01:48.155Z,48.6
2017-08-09T04:02:50.286Z,48.9
2017-08-09T04:03:52.415Z,48.6
2017-08-09T04:04:54.213Z,49
2017-08-09T04:05:56.355Z,48.6
2017-08-09T04:06:58.135Z,48.7
2017-08-09T04:08:00.264Z,48.7
2017-08-09T04:09:02.047Z,48.6
2017-08-09T04:10:03.492Z,48.9
2017-08-09T04:11:05.291Z,48.6
2017-08-09T04:12:07.066Z,48.7
2017-08-09T04:13:08.883Z,48.6
2017-08-09T04:14:10.349Z,48.7
2017-08-09T04:15:12.479Z,48.3
2017-08-09T04:16:14.257Z,48.2
2017-08-09T04:17:16.383Z,48.6
2017-08-09T04:18:18.186Z,48.3
2017-08-09T04:19:19.643Z,48.6
2017-08-09T04:20:21.445Z,48.7
2017-08-09T04:21:23.242Z,48.3
2017-08-09T04:22:25.016Z,48.2
2017-08-09T04:23:26.816Z,48.6
2017-08-09T04:24:28.613Z,48.2
2017-08-09T04:25:30.415Z,48.3
2017-08-09T04:26:32.548Z,48.2
2017-08-09T04:27:34.016Z,48.4
2017-08-09T04:28:35.793Z,48.2
2017-08-09T04:29:37.593Z,48.4
2017-08-09T04:30:39.375Z,48.2
2017-08-09T04:31:41.173Z,48.5
2017-08-09T04:32:43.303Z,48.2
2017-08-09T04:33:45.433Z,48.5
2017-08-09T04:34:47.560Z,48.6
2017-08-09T04:35:48.345Z,48.4
2017-08-09T04:36:49.825Z,48.3
2017-08-09T04:37:51.616Z,48.4
2017-08-09T04:38:53.059Z,48.4
2017-08-09T04:39:54.859Z,48.3
2017-08-09T04:40:55.990Z,48.4
2017-08-09T04:41:57.769Z,48.5
2017-08-09T04:42:59.896Z,48.5
2017-08-09T04:44:02.025Z,48.4
2017-08-09T04:45:03.469Z,48.7
2017-08-09T04:46:05.271Z,48.6
2017-08-09T04:47:07.405Z,48.4
2017-08-09T04:48:09.197Z,48.3
2017-08-09T04:49:10.309Z,48.2
2017-08-09T04:50:12.086Z,48.1
2017-08-09T04:51:14.215Z,48.6
2017-08-09T04:52:15.994Z,48.6
2017-08-09T04:53:17.791Z,48.4
2017-08-09T04:54:19.923Z,48.6
2017-08-09T04:55:21.771Z,48.5
2017-08-09T04:56:23.217Z,48.3
2017-08-09T04:57:25.011Z,48.2
2017-08-09T04:58:26.809Z,48.1
2017-08-09T04:59:27.924Z,48.5
2017-08-09T05:00:29.711Z,48
2017-08-09T05:01:31.510Z,48
2017-08-09T05:02:33.652Z,48.2
2017-08-09T05:03:35.779Z,48.5
2017-08-09T05:04:37.246Z,48.2
2017-08-09T05:05:38.713Z,48.1
2017-08-09T05:06:40.841Z,48.3
2017-08-09T05:07:42.311Z,48.2
2017-08-09T05:08:44.116Z,48.3
2017-08-09T05:09:46.249Z,48.1
2017-08-09T05:10:47.700Z,48.3
2017-08-09T05:11:49.167Z,48.2
2017-08-09T05:12:50.970Z,48.2
2017-08-09T05:13:53.101Z,48.4
2017-08-09T05:14:54.902Z,48.2
2017-08-09T05:15:56.702Z,48.4
2017-08-09T05:16:58.154Z,48.4
2017-08-09T05:18:00.287Z,48.1
2017-08-09T05:19:02.091Z,48.2
2017-08-09T05:20:03.874Z,48.3
2017-08-09T05:21:05.994Z,48.3
2017-08-09T05:22:07.792Z,48.2
2017-08-09T05:23:09.926Z,48.2
2017-08-09T05:24:11.392Z,48.2
2017-08-09T05:25:13.192Z,48.2
2017-08-09T05:26:14.992Z,48.2
2017-08-09T05:27:16.788Z,48.3
2017-08-09T05:28:18.922Z,48.2
2017-08-09T05:29:20.723Z,48.3
2017-08-09T05:30:22.528Z,48.3
2017-08-09T05:31:24.661Z,48.2
2017-08-09T05:32:26.797Z,48.4
2017-08-09T05:33:28.928Z,48.5
2017-08-09T05:34:31.059Z,48
2017-08-09T05:35:32.859Z,48.4
2017-08-09T05:36:34.326Z,47.6
2017-08-09T05:37:36.126Z,48
2017-08-09T05:38:37.573Z,47.7
2017-08-09T05:39:39.704Z,48
2017-08-09T05:40:41.497Z,48.2
2017-08-09T05:41:43.298Z,48
2017-08-09T05:42:45.431Z,47.6
2017-08-09T05:43:47.564Z,47.3
2017-08-09T05:44:49.363Z,47.3
2017-08-09T05:45:50.809Z,47.4
2017-08-09T05:46:52.609Z,47.5
2017-08-09T05:47:54.739Z,47.5
2017-08-09T05:48:56.540Z,47.5
2017-08-09T05:49:58.010Z,47.1
2017-08-09T05:50:59.482Z,47.2
2017-08-09T05:52:00.940Z,47.3
2017-08-09T05:53:02.396Z,47.1
2017-08-09T05:54:03.846Z,47.1
2017-08-09T05:55:05.979Z,47.1
2017-08-09T05:56:07.778Z,47.1
2017-08-09T05:57:09.345Z,47.1
2017-08-09T05:58:10.458Z,47.3
2017-08-09T05:59:12.254Z,47.1
2017-08-09T06:00:14.388Z,47.4
2017-08-09T06:01:16.523Z,47.4
2017-08-09T06:02:18.046Z,47.1
2017-08-09T06:03:19.497Z,47.1
2017-08-09T06:04:21.279Z,47
2017-08-09T06:05:23.412Z,47.1
2017-08-09T06:06:25.546Z,47.1
2017-08-09T06:07:27.448Z,47.1
2017-08-09T06:08:29.249Z,47.5
2017-08-09T06:09:31.055Z,47.5
2017-08-09T06:10:33.188Z,47.5
2017-08-09T06:11:34.988Z,47.5
2017-08-09T06:12:36.792Z,47.1
2017-08-09T06:13:38.925Z,47.1
2017-08-09T06:14:41.056Z,47.2
2017-08-09T06:15:42.512Z,47.5
2017-08-09T06:16:44.315Z,47.3
2017-08-09T06:17:46.121Z,47.5
2017-08-09T06:18:47.926Z,47.2
2017-08-09T06:19:49.732Z,47.2
2017-08-09T06:20:51.537Z,47.3
2017-08-09T06:21:53.673Z,47.1
2017-08-09T06:22:55.138Z,47.1
2017-08-09T06:23:57.271Z,47.1
2017-08-09T06:24:58.739Z,47.4
2017-08-09T06:26:00.183Z,47.5
2017-08-09T06:27:01.292Z,47.4
2017-08-09T06:28:03.114Z,47.4
2017-08-09T06:29:05.248Z,47.4
2017-08-09T06:30:07.381Z,47.4
2017-08-09T06:31:09.178Z,47.1
2017-08-09T06:32:10.626Z,47.1
2017-08-09T06:33:12.425Z,47.1
2017-08-09T06:34:14.564Z,47.4
2017-08-09T06:35:16.014Z,47.2
2017-08-09T06:36:17.480Z,47.1
2017-08-09T06:37:18.930Z,47.3
2017-08-09T06:38:21.061Z,47.2
2017-08-09T06:39:22.861Z,47.1
2017-08-09T06:40:24.311Z,47.3
2017-08-09T06:41:26.092Z,47.1
2017-08-09T06:42:28.278Z,47.2
2017-08-09T06:43:30.415Z,47.1
2017-08-09T06:44:32.546Z,47.1
2017-08-09T06:45:34.006Z,47.1
2017-08-09T06:46:35.809Z,47.3
2017-08-09T06:47:37.589Z,47.1
2017-08-09T06:48:39.387Z,46.9
2017-08-09T06:49:41.522Z,47.3
2017-08-09T06:50:42.987Z,47.3
2017-08-09T06:51:45.121Z,47.1
2017-08-09T06:52:46.920Z,47.2
2017-08-09T06:53:49.056Z,47.2
2017-08-09T06:54:50.521Z,47.1
2017-08-09T06:55:52.325Z,47.1
2017-08-09T06:56:54.457Z,47.1
2017-08-09T06:57:55.907Z,47.1
2017-08-09T06:58:57.711Z,47.3
2017-08-09T06:59:59.510Z,47.4
2017-08-09T07:01:01.314Z,47.4
2017-08-09T07:02:03.118Z,47.3
2017-08-09T07:03:04.566Z,47.4
2017-08-09T07:04:05.685Z,47
2017-08-09T07:05:07.495Z,47.4
2017-08-09T07:06:09.276Z,47.2
2017-08-09T07:07:11.076Z,47.2
2017-08-09T07:08:13.211Z,47.2
2017-08-09T07:09:15.010Z,47.2
2017-08-09T07:10:16.466Z,47.1
2017-08-09T07:11:18.268Z,47.1
2017-08-09T07:12:20.401Z,47.1
2017-08-09T07:13:22.200Z,47.1
2017-08-09T07:14:24.332Z,47.1
2017-08-09T07:15:26.133Z,47.2
2017-08-09T07:16:28.271Z,47.2
2017-08-09T07:17:30.405Z,47.1
2017-08-09T07:18:32.548Z,47.2
2017-08-09T07:19:34.356Z,47.2
2017-08-09T07:20:35.803Z,47.1
2017-08-09T07:21:37.582Z,47.1
2017-08-09T07:22:39.716Z,47.2
2017-08-09T07:23:41.950Z,47.2
2017-08-09T07:24:43.750Z,47.2
2017-08-09T07:25:45.218Z,46.9
2017-08-09T07:26:47.018Z,46.9
2017-08-09T07:27:48.797Z,47.2
2017-08-09T07:28:50.936Z,47.2
2017-08-09T07:29:52.406Z,47.1
2017-08-09T07:30:54.538Z,47.1
2017-08-09T07:31:56.003Z,47.1
2017-08-09T07:32:57.116Z,47.1
2017-08-09T07:33:59.251Z,46.9
2017-08-09T07:35:01.384Z,47.1
2017-08-09T07:36:03.186Z,47.1
2017-08-09T07:37:05.320Z,47.2
2017-08-09T07:38:07.096Z,47.2
2017-08-09T07:39:08.565Z,47.2
2017-08-09T07:40:10.699Z,47.2
2017-08-09T07:41:12.150Z,47
2017-08-09T07:42:13.597Z,47.1
2017-08-09T07:43:15.730Z,47.1
2017-08-09T07:44:17.530Z,47.1
2017-08-09T07:45:19.330Z,47.1
2017-08-09T07:46:21.464Z,47.1
2017-08-09T07:47:23.592Z,47.1
2017-08-09T07:48:25.393Z,47.1
2017-08-09T07:49:27.248Z,47.1
2017-08-09T07:50:29.049Z,47.1
2017-08-09T07:51:30.852Z,47.1
2017-08-09T07:52:32.630Z,47.1
2017-08-09T07:53:34.410Z,47.3
2017-08-09T07:54:36.219Z,47.3
2017-08-09T07:55:38.351Z,47.3
2017-08-09T07:56:40.157Z,47.1
2017-08-09T07:57:41.955Z,47.2
2017-08-09T07:58:44.086Z,47.1
2017-08-09T07:59:45.886Z,47.1
2017-08-09T08:00:48.016Z,47.3
2017-08-09T08:01:50.149Z,47.2
2017-08-09T08:02:51.604Z,47
2017-08-09T08:03:53.049Z,47.1
2017-08-09T08:04:54.825Z,47.1
2017-08-09T08:05:56.627Z,47.1
2017-08-09T08:06:58.760Z,47.1
2017-08-09T08:08:00.561Z,47.3
2017-08-09T08:09:02.700Z,47.2
2017-08-09T08:10:04.825Z,47.1
2017-08-09T08:11:06.625Z,47.3
2017-08-09T08:12:08.758Z,47.1
2017-08-09T08:13:10.893Z,47.1
2017-08-09T08:14:12.364Z,47.1
2017-08-09T08:15:14.160Z,47.1
2017-08-09T08:16:16.294Z,47.1
2017-08-09T08:17:18.426Z,47.1
2017-08-09T08:18:20.207Z,47.1
2017-08-09T08:19:22.010Z,47.1
2017-08-09T08:20:23.786Z,47.1
2017-08-09T08:21:24.896Z,47.2
2017-08-09T08:22:26.705Z,47.1
2017-08-09T08:23:28.839Z,47.1
2017-08-09T08:24:30.640Z,47.1
2017-08-09T08:25:32.418Z,47.3
2017-08-09T08:26:34.554Z,47.1
2017-08-09T08:27:36.331Z,47.1
2017-08-09T08:28:38.141Z,47.1
2017-08-09T08:29:40.274Z,47.1
2017-08-09T08:30:42.128Z,47.1
2017-08-09T08:31:43.570Z,47
2017-08-09T08:32:45.367Z,47.1
2017-08-09T08:33:47.503Z,47.1
2017-08-09T08:34:49.307Z,47.1
2017-08-09T08:35:50.426Z,47.1
2017-08-09T08:36:52.231Z,47.1
2017-08-09T08:37:54.365Z,47
2017-08-09T08:38:56.165Z,47.1
2017-08-09T08:39:58.301Z,46.9
2017-08-09T08:41:00.181Z,47.1
2017-08-09T08:42:02.317Z,47.1
2017-08-09T08:43:03.433Z,47.1
2017-08-09T08:44:05.213Z,46.8
2017-08-09T08:45:06.329Z,46.8
2017-08-09T08:46:08.132Z,46.7
2017-08-09T08:47:09.933Z,47.1
2017-08-09T08:48:12.070Z,46.8
2017-08-09T08:49:13.870Z,46.8
2017-08-09T08:50:15.674Z,47.1
2017-08-09T08:51:17.804Z,46.9
2017-08-09T08:52:19.602Z,47.1
2017-08-09T08:53:21.735Z,46.9
2017-08-09T08:54:23.538Z,46.7
2017-08-09T08:55:25.007Z,46.9
2017-08-09T08:56:27.142Z,46.9
2017-08-09T08:57:28.921Z,46.5
2017-08-09T08:58:30.721Z,46.8
2017-08-09T08:59:32.854Z,46.8
2017-08-09T09:00:34.984Z,46.9
2017-08-09T09:01:37.118Z,46.8
2017-08-09T09:02:38.917Z,47.1
2017-08-09T09:03:41.049Z,46.7
2017-08-09T09:04:43.183Z,47.1
2017-08-09T09:05:44.986Z,46.8
2017-08-09T09:06:46.429Z,46.8
2017-08-09T09:07:48.225Z,46.9
2017-08-09T09:08:50.028Z,46.8
2017-08-09T09:09:52.158Z,46.8
2017-08-09T09:10:53.625Z,46.6
2017-08-09T09:11:55.761Z,46.8
2017-08-09T09:12:57.559Z,46.8
2017-08-09T09:13:59.007Z,47
2017-08-09T09:15:00.811Z,46.9
2017-08-09T09:16:02.941Z,46.7
2017-08-09T09:17:04.755Z,46.9
2017-08-09T09:18:06.234Z,46.8
2017-08-09T09:19:08.035Z,46.7
2017-08-09T09:20:09.834Z,46.7
2017-08-09T09:21:11.300Z,46.6
2017-08-09T09:22:12.764Z,46.4
2017-08-09T09:23:14.214Z,46.7
2017-08-09T09:24:16.348Z,46.9
2017-08-09T09:25:18.145Z,46.7
2017-08-09T09:26:20.282Z,46.5
2017-08-09T09:27:22.413Z,46.4
2017-08-09T09:28:23.887Z,46.4
2017-08-09T09:29:25.663Z,46.2
2017-08-09T09:30:27.796Z,46.5
2017-08-09T09:31:29.572Z,46.4
2017-08-09T09:32:31.351Z,46.4
2017-08-09T09:33:33.507Z,46.4
2017-08-09T09:34:35.300Z,46.4
2017-08-09T09:35:37.098Z,46.2
2017-08-09T09:36:38.901Z,46.4
2017-08-09T09:37:40.346Z,46.4
2017-08-09T09:38:41.797Z,46.6
2017-08-09T09:39:43.929Z,46.6
2017-08-09T09:40:45.061Z,46.6
2017-08-09T09:41:46.512Z,46.4
2017-08-09T09:42:47.963Z,46.4
2017-08-09T09:43:49.762Z,46.4
2017-08-09T09:44:51.563Z,46.3
2017-08-09T09:45:53.365Z,46.8
2017-08-09T09:46:55.500Z,46.3
2017-08-09T09:47:57.279Z,46.4
2017-08-09T09:48:59.419Z,46.3
2017-08-09T09:50:00.860Z,46.4
2017-08-09T09:51:02.992Z,46.2
2017-08-09T09:52:04.795Z,46.1
2017-08-09T09:53:06.929Z,46.2
2017-08-09T09:54:08.705Z,46.2
2017-08-09T09:55:10.841Z,46.1
2017-08-09T09:56:12.640Z,46.1
2017-08-09T09:57:14.441Z,46.2
2017-08-09T09:58:16.236Z,46.3
2017-08-09T09:59:18.370Z,46.2
2017-08-09T10:00:19.816Z,46.1
2017-08-09T10:01:21.618Z,46.4
2017-08-09T10:02:23.421Z,46.3
2017-08-09T10:03:25.205Z,46.2
2017-08-09T10:04:27.335Z,46
2017-08-09T10:05:29.136Z,45.8
2017-08-09T10:06:30.912Z,46
2017-08-09T10:07:33.049Z,45.6
2017-08-09T10:08:34.523Z,45.9
2017-08-09T10:09:35.633Z,45.5
2017-08-09T10:10:37.433Z,45.8
2017-08-09T10:11:39.237Z,45.5
2017-08-09T10:12:41.040Z,45.6
2017-08-09T10:13:42.819Z,45.5
2017-08-09T10:14:44.619Z,45.6
2017-08-09T10:15:46.419Z,45.9
2017-08-09T10:16:48.199Z,45.3
2017-08-09T10:17:50.051Z,45.9
2017-08-09T10:18:51.856Z,45.4
2017-08-09T10:19:53.305Z,45.9
2017-08-09T10:20:55.443Z,45.9
2017-08-09T10:21:57.574Z,45.5
2017-08-09T10:22:59.376Z,45.4
2017-08-09T10:24:01.511Z,45.4
2017-08-09T10:25:03.309Z,45.4
2017-08-09T10:26:05.110Z,45.4
2017-08-09T10:27:06.556Z,45.6
2017-08-09T10:28:08.355Z,45.2
2017-08-09T10:29:10.136Z,45.8
2017-08-09T10:30:11.939Z,45.5
2017-08-09T10:31:13.737Z,45.7
2017-08-09T10:32:15.876Z,45.2
2017-08-09T10:33:18.010Z,45.5
2017-08-09T10:34:19.810Z,45.4
2017-08-09T10:35:21.620Z,45.3
2017-08-09T10:36:23.086Z,45.2
2017-08-09T10:37:24.552Z,45.2
2017-08-09T10:38:26.684Z,45.3
2017-08-09T10:39:28.818Z,45.2
2017-08-09T10:40:29.936Z,45.3
2017-08-09T10:41:31.396Z,45.3
2017-08-09T10:42:32.865Z,45.4
2017-08-09T10:43:34.664Z,45.5
2017-08-09T10:44:36.466Z,45.3
2017-08-09T10:45:38.273Z,45.2
2017-08-09T10:46:40.408Z,45.1
2017-08-09T10:47:42.543Z,44.8
2017-08-09T10:48:44.337Z,45.5
2017-08-09T10:49:46.134Z,45.2
2017-08-09T10:50:47.242Z,44.8
2017-08-09T10:51:48.360Z,45.5
2017-08-09T10:52:50.164Z,45.5
2017-08-09T10:53:52.299Z,45.5
2017-08-09T10:54:53.771Z,45.4
2017-08-09T10:55:55.575Z,45.5
2017-08-09T10:56:57.706Z,45.4
2017-08-09T10:57:59.841Z,45
2017-08-09T10:59:01.696Z,45.5
2017-08-09T11:00:03.471Z,45.5
2017-08-09T11:01:04.921Z,45.6
2017-08-09T11:02:06.705Z,45.4
2017-08-09T11:03:08.507Z,45.2
2017-08-09T11:04:10.305Z,45.5
2017-08-09T11:05:12.450Z,45.4
2017-08-09T11:06:14.282Z,45.5
2017-08-09T11:07:16.079Z,45.4
2017-08-09T11:08:17.534Z,45.2
2017-08-09T11:09:18.983Z,45.4
2017-08-09T11:10:20.782Z,45.2
2017-08-09T11:11:22.583Z,45.5
2017-08-09T11:12:24.048Z,45.1
2017-08-09T11:13:25.161Z,44.9
2017-08-09T11:14:26.631Z,44.9
2017-08-09T11:15:28.100Z,44.8
2017-08-09T11:16:29.904Z,44.9
2017-08-09T11:17:31.685Z,45.1
2017-08-09T11:18:33.819Z,44.7
2017-08-09T11:19:35.622Z,45.1
2017-08-09T11:20:37.424Z,45.3
2017-08-09T11:21:38.873Z,45.3
2017-08-09T11:22:41.009Z,45.6
2017-08-09T11:23:43.143Z,45.2
2017-08-09T11:24:45.273Z,45.4
2017-08-09T11:25:46.760Z,45.3
2017-08-09T11:26:48.892Z,45.5
2017-08-09T11:27:51.024Z,45.3
2017-08-09T11:28:52.803Z,45.2
2017-08-09T11:29:54.580Z,45.4
2017-08-09T11:30:56.711Z,45.1
2017-08-09T11:31:58.861Z,45.4
2017-08-09T11:33:00.304Z,45.1
2017-08-09T11:34:02.108Z,45.4
2017-08-09T11:35:04.240Z,45.2
2017-08-09T11:36:06.042Z,45.5
2017-08-09T11:37:07.843Z,44.7
2017-08-09T11:38:09.980Z,45.4
2017-08-09T11:39:11.780Z,45.6
2017-08-09T11:40:13.250Z,45.2
2017-08-09T11:41:14.699Z,45.3
2017-08-09T11:42:16.505Z,45.4
2017-08-09T11:43:18.316Z,45.4
2017-08-09T11:44:20.117Z,45.1
2017-08-09T11:45:21.564Z,45
2017-08-09T11:46:23.360Z,45.3
2017-08-09T11:47:25.493Z,45.5
2017-08-09T11:48:27.271Z,45.5
2017-08-09T11:49:29.403Z,45.2
2017-08-09T11:50:30.520Z,45.5
2017-08-09T11:51:31.995Z,45.5
2017-08-09T11:52:33.439Z,45.3
2017-08-09T11:53:35.576Z,45.4
2017-08-09T11:54:37.023Z,45.6
2017-08-09T11:55:38.144Z,45.3
2017-08-09T11:56:39.935Z,45.3
2017-08-09T11:57:41.386Z,45.3
2017-08-09T11:58:43.520Z,45.4
2017-08-09T11:59:45.656Z,45.4
2017-08-09T12:00:47.157Z,45.6
2017-08-09T12:01:49.288Z,45.4
2017-08-09T12:02:50.758Z,45.2
2017-08-09T12:03:52.890Z,45.6
2017-08-09T12:04:55.023Z,45.4
2017-08-09T12:05:57.160Z,45.5
2017-08-09T12:06:58.636Z,45.4
2017-08-09T12:08:00.444Z,45.6
2017-08-09T12:09:01.909Z,45.5
2017-08-09T12:10:04.040Z,45.5
2017-08-09T12:11:05.844Z,45.5
2017-08-09T12:12:07.980Z,45.4
2017-08-09T12:13:09.770Z,45.4
2017-08-09T12:14:11.570Z,45.5
2017-08-09T12:15:13.350Z,45.4
2017-08-09T12:16:15.480Z,45.5
2017-08-09T12:17:17.277Z,45.4
2017-08-09T12:18:19.414Z,45.4
2017-08-09T12:19:21.548Z,45.5
2017-08-09T12:20:23.683Z,45.5
2017-08-09T12:21:25.131Z,45.6
2017-08-09T12:22:26.599Z,45.4
2017-08-09T12:23:28.733Z,45.3
2017-08-09T12:24:30.530Z,45.3
2017-08-09T12:25:32.334Z,45.5
2017-08-09T12:26:33.825Z,45.3
2017-08-09T12:27:35.945Z,45.3
2017-08-09T12:28:37.398Z,45.5
2017-08-09T12:29:38.868Z,45
2017-08-09T12:30:40.004Z,45.6
2017-08-09T12:31:42.140Z,45.6
2017-08-09T12:32:43.940Z,45.4
2017-08-09T12:33:45.744Z,45.2
2017-08-09T12:34:47.213Z,44.8
2017-08-09T12:35:49.346Z,45.3
2017-08-09T12:36:50.792Z,45.3
2017-08-09T12:37:51.926Z,45.5
2017-08-09T12:38:53.049Z,45.2
2017-08-09T12:39:54.829Z,45.3
2017-08-09T12:40:56.960Z,45.5
2017-08-09T12:41:59.092Z,45.1
2017-08-09T12:43:00.543Z,45.4
2017-08-09T12:44:01.654Z,45.5
2017-08-09T12:45:03.102Z,45.6
2017-08-09T12:46:04.880Z,45.5
2017-08-09T12:47:06.683Z,45.5
2017-08-09T12:48:08.147Z,45.3
2017-08-09T12:49:09.944Z,45.4
2017-08-09T12:50:11.084Z,45.5
2017-08-09T12:51:13.216Z,45.3
2017-08-09T12:52:15.002Z,45.6
2017-08-09T12:53:16.445Z,45.3
2017-08-09T12:54:18.246Z,45.3
2017-08-09T12:55:20.046Z,45.3
2017-08-09T12:56:21.849Z,45.1
2017-08-09T12:57:23.318Z,45.3
2017-08-09T12:58:25.123Z,45.2
2017-08-09T12:59:27.252Z,45.3
2017-08-09T13:00:29.057Z,45.3
2017-08-09T13:01:30.854Z,45.3
2017-08-09T13:02:32.654Z,45.2
2017-08-09T13:03:34.790Z,45.3
2017-08-09T13:04:36.593Z,45.3
2017-08-09T13:05:38.394Z,45.4
2017-08-09T13:06:40.528Z,45.4
2017-08-09T13:07:42.327Z,45.6
2017-08-09T13:08:44.460Z,45.3
2017-08-09T13:09:46.594Z,45.4
2017-08-09T13:10:47.712Z,45.2
2017-08-09T13:11:49.495Z,45.4
2017-08-09T13:12:51.293Z,45.5
2017-08-09T13:13:53.424Z,45.4
2017-08-09T13:14:54.871Z,45.4
2017-08-09T13:15:57.003Z,45.4
2017-08-09T13:16:59.130Z,45.3
2017-08-09T13:18:00.283Z,45.3
2017-08-09T13:19:01.405Z,45.3
2017-08-09T13:20:03.538Z,45.4
2017-08-09T13:21:05.677Z,45.4
2017-08-09T13:22:07.805Z,45.4
2017-08-09T13:23:10.039Z,45.3
2017-08-09T13:24:12.169Z,45.4
2017-08-09T13:25:14.301Z,45.3
2017-08-09T13:26:15.746Z,45.5
2017-08-09T13:27:17.878Z,45.5
2017-08-09T13:28:19.680Z,45.4
2017-08-09T13:29:21.476Z,45.3
2017-08-09T13:30:22.923Z,45.4
2017-08-09T13:31:24.705Z,45.5
2017-08-09T13:32:26.833Z,45.6
2017-08-09T13:33:28.639Z,45.5
2017-08-09T13:34:30.434Z,45.5
2017-08-09T13:35:32.570Z,45.5
2017-08-09T13:36:34.698Z,45.5
2017-08-09T13:37:36.496Z,45.3
2017-08-09T13:38:38.275Z,45.3
2017-08-09T13:39:40.104Z,45.5
2017-08-09T13:40:42.238Z,45.3
2017-08-09T13:41:44.042Z,45.3
2017-08-09T13:42:45.822Z,45.4
2017-08-09T13:43:47.625Z,45.2
2017-08-09T13:44:49.760Z,45.4
2017-08-09T13:45:51.562Z,45.3
2017-08-09T13:46:53.692Z,45.4
2017-08-09T13:47:55.492Z,45.4
2017-08-09T13:48:56.962Z,45.4